(°C)
19°
18°
17°
17°
18°
19°
20°
(°C)
20°
19°
19°
18°
19°
20°
21°
ΒΒΔ
ΒΒΔ
ΒΒΔ
Β
Β
ΒΒΑ
ΒΒΑ
(χλμ / ω)
3-9
3-8
2-6
2-5
2-6
3-7
3-8
(χιλιοστά)
0
0
0
0
0
0
0
(%)
3
2
1
1
1
0
0

Ανύψωση ήλιου

/ -26.5°
sun-icon
UV 8
05:36
20:22
Φθίνων αμφίκυρτος (φάση σελήνης) (349°)
05:00
19:53

METAR για Wilmington Manor (KILG)

Χρόνος Συνθήκες Θερμοκρασία/
Σημείο δρόσου
Άνεμος Ορατότητα Καιρός Νέφη Πίεση Αλλαγή Ανεπεξέργαστο
VFR 19.4°C / 14.4°C 360º 5kt >10km - Clear 1014 - KILG 290551Z AUTO 36005KT 10SM CLR 19/14 A2996 RMK AO2 SLP145 T01940144 10239 20183 51018
VFR 19.4°C / 15°C 360º 6kt >10km - Clear 1014 - KILG 290451Z AUTO 36006KT 10SM CLR 19/15 A2995 RMK AO2 SLP142 T01940150 402670183
VFR 20°C / 15°C 340º 3kt >10km - Few Clouds 5000ft 1013 - KILG 290351Z AUTO 34003KT 10SM FEW050 20/15 A2994 RMK AO2 SLP138 T02000150
VFR 21.1°C / 15°C 290º 9kt >10km - Clear 1012 - KILG 290251Z AUTO 29009KT 10SM CLR 21/15 A2991 RMK AO2 SLP127 T02110150 51021
VFR 22.2°C / 15°C 260º 8kt >10km - Broken Clouds 7500ft
Broken Clouds 8500ft
1012 - KILG 290151Z 26008KT 10SM BKN075 BKN085 22/15 A2989 RMK AO2 SLP121 T02220150
VFR 21.7°C / 15°C 250º 5kt >10km - Few Clouds 8500ft 1011 - KILG 290051Z 25005KT 10SM FEW085 22/15 A2986 RMK AO2 SLP113 T02170150
VFR 23.9°C / 14.4°C 250º 7kt >10km - Broken Clouds 6000ft 1010 - KILG 282351Z 25007KT 10SM BKN060 24/14 A2984 RMK AO2 SLP106 60002 T02390144 10267 20211 53012
VFR 25°C / 13.9°C 280º 6kt >10km - Few Clouds 9000ft 1010 - KILG 282251Z 28006KT 10SM FEW090 25/14 A2983 RMK AO2 SLP100 T02500139
VFR 25.6°C / 14.4°C 300º 5kt >10km - Scattered Clouds 9000ft 1009 - KILG 282151Z 30005KT 10SM SCT090 26/14 A2982 RMK AO2 SLP096 T02560144
VFR 25°C / 15°C 310º 9kt >10km - Few Clouds 4600ft
Scattered Clouds 6000ft
Broken Clouds 8000ft
1009 - KILG 282051Z 31009KT 10SM FEW046 SCT060 BKN080 25/15 A2981 RMK AO2 SLP094 60002 T02500150 52010
VFR 25°C / 15.6°C 320º 8kt >10km - Scattered Clouds 3900ft
Scattered Clouds 4700ft
1008 - KILG 281951Z 32008KT 10SM SCT039 SCT047 25/16 A2979 RMK AO2 SLP089 T02500156
VFR 23.3°C / 15.6°C 260º 11kt >10km 0.51mm precipitation Broken Clouds 10000ft 1008 - KILG 281851Z 26011KT 10SM BKN100 23/16 A2980 RMK AO2 LTG DSNT E RAB1752E12 SLP089 P0002 T02330156
VFR 23.9°C / 16.7°C 260º 11kt >10km 0.51mm precipitation Clear - KILG 281835Z 26011KT 10SM CLR 24/17 A2980 RMK AO2 LTG DSNT E RAB1752E12 P0002 T02390167
VFR 21.7°C / 16.7°C 270º 12kt Gust 19kt >10km in the Vicinity Thunderstorm 0.51mm precipitation Few Clouds 4100ft
Few Clouds 6000ft
Scattered Clouds 9000ft
- KILG 281815Z 27012G19KT 10SM VCTS FEW041 FEW060 SCT090 22/17 A2980 RMK AO2 LTG DSNT NE AND E RAB1752E12 P0002 T02170167
VFR 24.4°C / 14.4°C 290º 15kt >10km - Few Clouds 4600ft
Few Clouds 7000ft
Scattered Clouds 9000ft
1008 - KILG 281751Z 29015KT 10SM FEW046 FEW070 SCT090 24/14 A2978 RMK AO2 LTG DSNT NE SLP084 T02440144 10261 20189 56001
VFR 25.6°C / 15°C 310º 11kt >10km - Few Clouds 4200ft
Few Clouds 4900ft
Scattered Clouds 5500ft
1008 - KILG 281651Z 31011KT 10SM FEW042 FEW049 SCT055 26/15 A2978 RMK AO2 SLP084 T02560150
VFR 23.3°C / 15°C 280º 8kt >10km - Scattered Clouds 3700ft 1008 - KILG 281551Z 28008KT 10SM SCT037 23/15 A2978 RMK AO2 SLP084 T02330150
VFR 23.3°C / 15.6°C 310º 8kt >10km - Few Clouds 2800ft
Scattered Clouds 3500ft
- KILG 281501Z 31008KT 10SM FEW028 SCT035 23/16 A2978 RMK AO2 T02330156
MVFR 22.2°C / 15°C 290º 10kt >10km - Broken Clouds 2800ft
Broken Clouds 3500ft
1008 - KILG 281451Z 29010KT 10SM BKN028 BKN035 22/15 A2978 RMK AO2 SLP085 T02220150 50010
VFR 22.2°C / 16.7°C 310º 12kt Gust 18kt >10km - Scattered Clouds 2000ft 1008 - KILG 281351Z 31012G18KT 10SM SCT020 22/17 A2979 RMK AO2 SLP086 T02220167
VFR 20.6°C / 16.7°C 250º 9kt >10km - Clear 1008 - KILG 281251Z 25009KT 10SM CLR 21/17 A2978 RMK AO2 SLP083 T02060167
VFR 18.9°C / 17.2°C 250º 5kt >10km - Clear 1007 - KILG 281151Z AUTO 25005KT 10SM CLR 19/17 A2975 RMK AO2 SLP075 60000 70036 T01890172 10189 20183 53005
VFR 18.3°C / 17.2°C 260º 5kt >10km 0.13mm precipitation Few Clouds 12000ft 1007 - KILG 281051Z AUTO 26005KT 10SM FEW120 18/17 A2975 RMK AO2 RAB13E23 SLP073 P0000 T01830172
VFR 18.3°C / 17.2°C 270º 5kt >10km 0.13mm precipitation Overcast 11000ft 1006 - KILG 280951Z AUTO 27005KT 10SM OVC110 18/17 A2973 RMK AO2 RAB22E31 SLP067 P0000 T01830172

VFR

19.4°C / 14.4°C

[Περισσότερο]
Άνεμος 360º 5kt
Ορατότητα >10km
Καιρός -
Νέφη Clear
Πίεση 1014
Αλλαγή -
Ανεπεξέργαστο KILG 290551Z AUTO 36005KT 10SM CLR 19/14 A2996 RMK AO2 SLP145 T01940144 10239 20183 51018

VFR

19.4°C / 15°C

[Περισσότερο]
Άνεμος 360º 6kt
Ορατότητα >10km
Καιρός -
Νέφη Clear
Πίεση 1014
Αλλαγή -
Ανεπεξέργαστο KILG 290451Z AUTO 36006KT 10SM CLR 19/15 A2995 RMK AO2 SLP142 T01940150 402670183

VFR

20°C / 15°C

[Περισσότερο]
Άνεμος 340º 3kt
Ορατότητα >10km
Καιρός -
Νέφη Few Clouds 5000ft
Πίεση 1013
Αλλαγή -
Ανεπεξέργαστο KILG 290351Z AUTO 34003KT 10SM FEW050 20/15 A2994 RMK AO2 SLP138 T02000150

VFR

21.1°C / 15°C

[Περισσότερο]
Άνεμος 290º 9kt
Ορατότητα >10km
Καιρός -
Νέφη Clear
Πίεση 1012
Αλλαγή -
Ανεπεξέργαστο KILG 290251Z AUTO 29009KT 10SM CLR 21/15 A2991 RMK AO2 SLP127 T02110150 51021

VFR

22.2°C / 15°C

[Περισσότερο]
Άνεμος 260º 8kt
Ορατότητα >10km
Καιρός -
Νέφη Broken Clouds 7500ft
Broken Clouds 8500ft
Πίεση 1012
Αλλαγή -
Ανεπεξέργαστο KILG 290151Z 26008KT 10SM BKN075 BKN085 22/15 A2989 RMK AO2 SLP121 T02220150

VFR

21.7°C / 15°C

[Περισσότερο]
Άνεμος 250º 5kt
Ορατότητα >10km
Καιρός -
Νέφη Few Clouds 8500ft
Πίεση 1011
Αλλαγή -
Ανεπεξέργαστο KILG 290051Z 25005KT 10SM FEW085 22/15 A2986 RMK AO2 SLP113 T02170150

VFR

23.9°C / 14.4°C

[Περισσότερο]
Άνεμος 250º 7kt
Ορατότητα >10km
Καιρός -
Νέφη Broken Clouds 6000ft
Πίεση 1010
Αλλαγή -
Ανεπεξέργαστο KILG 282351Z 25007KT 10SM BKN060 24/14 A2984 RMK AO2 SLP106 60002 T02390144 10267 20211 53012

VFR

25°C / 13.9°C

[Περισσότερο]
Άνεμος 280º 6kt
Ορατότητα >10km
Καιρός -
Νέφη Few Clouds 9000ft
Πίεση 1010
Αλλαγή -
Ανεπεξέργαστο KILG 282251Z 28006KT 10SM FEW090 25/14 A2983 RMK AO2 SLP100 T02500139

VFR

25.6°C / 14.4°C

[Περισσότερο]
Άνεμος 300º 5kt
Ορατότητα >10km
Καιρός -
Νέφη Scattered Clouds 9000ft
Πίεση 1009
Αλλαγή -
Ανεπεξέργαστο KILG 282151Z 30005KT 10SM SCT090 26/14 A2982 RMK AO2 SLP096 T02560144

VFR

25°C / 15°C

[Περισσότερο]
Άνεμος 310º 9kt
Ορατότητα >10km
Καιρός -
Νέφη Few Clouds 4600ft
Scattered Clouds 6000ft
Broken Clouds 8000ft
Πίεση 1009
Αλλαγή -
Ανεπεξέργαστο KILG 282051Z 31009KT 10SM FEW046 SCT060 BKN080 25/15 A2981 RMK AO2 SLP094 60002 T02500150 52010

VFR

25°C / 15.6°C

[Περισσότερο]
Άνεμος 320º 8kt
Ορατότητα >10km
Καιρός -
Νέφη Scattered Clouds 3900ft
Scattered Clouds 4700ft
Πίεση 1008
Αλλαγή -
Ανεπεξέργαστο KILG 281951Z 32008KT 10SM SCT039 SCT047 25/16 A2979 RMK AO2 SLP089 T02500156

VFR

23.3°C / 15.6°C

[Περισσότερο]
Άνεμος 260º 11kt
Ορατότητα >10km
Καιρός 0.51mm precipitation
Νέφη Broken Clouds 10000ft
Πίεση 1008
Αλλαγή -
Ανεπεξέργαστο KILG 281851Z 26011KT 10SM BKN100 23/16 A2980 RMK AO2 LTG DSNT E RAB1752E12 SLP089 P0002 T02330156

VFR

23.9°C / 16.7°C

[Περισσότερο]
Άνεμος 260º 11kt
Ορατότητα >10km
Καιρός 0.51mm precipitation
Νέφη Clear
Πίεση
Αλλαγή -
Ανεπεξέργαστο KILG 281835Z 26011KT 10SM CLR 24/17 A2980 RMK AO2 LTG DSNT E RAB1752E12 P0002 T02390167

VFR

21.7°C / 16.7°C

[Περισσότερο]
Άνεμος 270º 12kt Gust 19kt
Ορατότητα >10km
Καιρός in the Vicinity Thunderstorm 0.51mm precipitation
Νέφη Few Clouds 4100ft
Few Clouds 6000ft
Scattered Clouds 9000ft
Πίεση
Αλλαγή -
Ανεπεξέργαστο KILG 281815Z 27012G19KT 10SM VCTS FEW041 FEW060 SCT090 22/17 A2980 RMK AO2 LTG DSNT NE AND E RAB1752E12 P0002 T02170167

VFR

24.4°C / 14.4°C

[Περισσότερο]
Άνεμος 290º 15kt
Ορατότητα >10km
Καιρός -
Νέφη Few Clouds 4600ft
Few Clouds 7000ft
Scattered Clouds 9000ft
Πίεση 1008
Αλλαγή -
Ανεπεξέργαστο KILG 281751Z 29015KT 10SM FEW046 FEW070 SCT090 24/14 A2978 RMK AO2 LTG DSNT NE SLP084 T02440144 10261 20189 56001

VFR

25.6°C / 15°C

[Περισσότερο]
Άνεμος 310º 11kt
Ορατότητα >10km
Καιρός -
Νέφη Few Clouds 4200ft
Few Clouds 4900ft
Scattered Clouds 5500ft
Πίεση 1008
Αλλαγή -
Ανεπεξέργαστο KILG 281651Z 31011KT 10SM FEW042 FEW049 SCT055 26/15 A2978 RMK AO2 SLP084 T02560150

VFR

23.3°C / 15°C

[Περισσότερο]
Άνεμος 280º 8kt
Ορατότητα >10km
Καιρός -
Νέφη Scattered Clouds 3700ft
Πίεση 1008
Αλλαγή -
Ανεπεξέργαστο KILG 281551Z 28008KT 10SM SCT037 23/15 A2978 RMK AO2 SLP084 T02330150

VFR

23.3°C / 15.6°C

[Περισσότερο]
Άνεμος 310º 8kt
Ορατότητα >10km
Καιρός -
Νέφη Few Clouds 2800ft
Scattered Clouds 3500ft
Πίεση
Αλλαγή -
Ανεπεξέργαστο KILG 281501Z 31008KT 10SM FEW028 SCT035 23/16 A2978 RMK AO2 T02330156

MVFR

22.2°C / 15°C

[Περισσότερο]
Άνεμος 290º 10kt
Ορατότητα >10km
Καιρός -
Νέφη Broken Clouds 2800ft
Broken Clouds 3500ft
Πίεση 1008
Αλλαγή -
Ανεπεξέργαστο KILG 281451Z 29010KT 10SM BKN028 BKN035 22/15 A2978 RMK AO2 SLP085 T02220150 50010

VFR

22.2°C / 16.7°C

[Περισσότερο]
Άνεμος 310º 12kt Gust 18kt
Ορατότητα >10km
Καιρός -
Νέφη Scattered Clouds 2000ft
Πίεση 1008
Αλλαγή -
Ανεπεξέργαστο KILG 281351Z 31012G18KT 10SM SCT020 22/17 A2979 RMK AO2 SLP086 T02220167

VFR

20.6°C / 16.7°C

[Περισσότερο]
Άνεμος 250º 9kt
Ορατότητα >10km
Καιρός -
Νέφη Clear
Πίεση 1008
Αλλαγή -
Ανεπεξέργαστο KILG 281251Z 25009KT 10SM CLR 21/17 A2978 RMK AO2 SLP083 T02060167

VFR

18.9°C / 17.2°C

[Περισσότερο]
Άνεμος 250º 5kt
Ορατότητα >10km
Καιρός -
Νέφη Clear
Πίεση 1007
Αλλαγή -
Ανεπεξέργαστο KILG 281151Z AUTO 25005KT 10SM CLR 19/17 A2975 RMK AO2 SLP075 60000 70036 T01890172 10189 20183 53005

VFR

18.3°C / 17.2°C

[Περισσότερο]
Άνεμος 260º 5kt
Ορατότητα >10km
Καιρός 0.13mm precipitation
Νέφη Few Clouds 12000ft
Πίεση 1007
Αλλαγή -
Ανεπεξέργαστο KILG 281051Z AUTO 26005KT 10SM FEW120 18/17 A2975 RMK AO2 RAB13E23 SLP073 P0000 T01830172

VFR

18.3°C / 17.2°C

[Περισσότερο]
Άνεμος 270º 5kt
Ορατότητα >10km
Καιρός 0.13mm precipitation
Νέφη Overcast 11000ft
Πίεση 1006
Αλλαγή -
Ανεπεξέργαστο KILG 280951Z AUTO 27005KT 10SM OVC110 18/17 A2973 RMK AO2 RAB22E31 SLP067 P0000 T01830172

TAF για Wilmington Manor (KILG)

From till


From till Wind 350º 5kt. Visibility 10km or more. Few Clouds 5000ft.
From till Wind 330º 5kt. Visibility 10km or more. Few Clouds 10000ft.
From till Wind 250º 5kt. Visibility 10km or more. Few Clouds 6000ft. Scattered Clouds 25000ft.
From till Wind 200º 5kt. Visibility 10km or more. Few Clouds 7000ft. Scattered Clouds 25000ft.
From till Wind variable 3kt. Visibility 10km or more. Few Clouds 25000ft.

Ανεπεξέργαστο: KILG 290520Z 2906/3006 35005KT P6SM FEW050 FM291000 33005KT P6SM FEW100 FM291700 25005KT P6SM FEW060 SCT250 FM292000 20005KT P6SM FEW070 SCT250 FM300000 VRB03KT P6SM FEW250

Ραντάρ και πρόγνωση υετού μικρής διάρκειας για Wilmington Manor

Ψιλοβρέχει
Φως
Μέτρια
Βαριά
Πολύ βαρύ
Χαλάζι

Ο δείκτης θέσης τοποθετείται στο Wilmington Manor. Αυτή η κινούμενη εικόνα δείχνει την ραντάρ βροχόπτωσης για την τελευταία ώρα, καθώς και 1πρόγνωση h. Το ψιλόβροχο ή το ελαφρύ χιόνι μπορεί να είναι αόρατο για το ραντάρ. Η ένταση της βροχόπτωσης είναι χρωματικά κωδικοποιημένη και κυμαίνεται από γαλάζιο έως πορτοκαλί.

Τρέχουσες εικόνες δορυφόρου για Wilmington Manor, ΗΠΑ

Η ένδειξη τοποθεσίας τοποθετείται στο Wilmington Manor. [Περισσότερο]

Οι δορυφορικές εικόνες σε πραγματικό χρόνο συνδυάζουν ορατό φως κατά τη διάρκεια της ημέρας με υπέρυθρη ακτινοβολία κατά τη διάρκεια της νύχτας. Κατά τη διάρκεια της νύχτας, η εικόνα δεν είναι σκοτεινή μιας και η υπέρυθρη ακτινοβολία μπορεί να εντοπίσει τις διαφορές στη θερμοκρασία. Δυστυχώς, είναι δύσκολο να ξεχωρίσουν οι χαμηλές νεφώσεις και η ομίχλη από τις θερμοκρασίες εδάφους και έτσι μπορεί να είναι σχετικά αόρατα κατά τη διάρκεια της νύχτας. Οι εικόνες από τον δορυφόρο Meteosat για την Ευρώπη ενημερώνονται σε πραγματικό χρόνο κάθε 5 λεπτά. Οι εικόνες από τους δορυφόρους GOES-16/GOES-17 (Βόρεια & Λατινική Αμερική) και Himawari (Ασία) ενημερώνονται κάθε 10 λεπτά.

Επιστροφή στην κορυφή